ROMMA est une association bénévole à but non lucratif. Votre soutien est indispensable : ADHERER à ROMMA ou FAIRE un DON

Montélimar - (26, Drôme)

Basse vallée du Rhône (88 m)   Longitude: 04° 45' E   Latitude: 44° 32' N Station partenaire n°164
 

Détail journalier du     <<     >>

Température Precipitation Humidité Pression Vent Dir Rafale Dir. rafale
Heure (°C) (mm) (%) (hPa) (km/h) (km/h)
01:00 23.204610142ENE16ENE
02:00 22.604710143NE18NE
03:00 21.604810143NE16NE
04:00 19.905310142NE18NE
05:00 20.304910145NE23NNE
06:00 19.7052101415N37NNO
07:00 19.3057101516N39N
08:00 19.2063101620N47NE
09:00 19.4064101621N44NE
10:00 20.1062101724N52NE
11:00 20.8060101728N53NNO
12:00 20.7060101722NE45NNO
13:00 20.6059101826N48NO
14:00 20.8053101727N55NE
15:00 21.3048101726N52NNE
16:00 21.8044101727N52NNE
17:00 22.2040101627N50NNE
18:00 21.8039101727N58NE
19:00 21.4040101726NO56NNO
20:00 20.3045101723N53NE
21:00 19.8048101723N58NNO
22:00 19.5049101724N50N
23:00 19.2051101731N63NNO
minuit 18.6053101731N66N

Graphique du 05-09-2019

 

Serveur OMMA